createdAt,value
2019-05-10T00:00:47.456Z,2.30
2019-05-10T00:03:34.270Z,2.40
2019-05-10T00:06:21.726Z,2.10
2019-05-10T00:08:49.755Z,2.40
2019-05-10T00:11:41.519Z,2.50
2019-05-10T00:14:33.458Z,3.00
2019-05-10T00:17:21.881Z,2.70
2019-05-10T00:19:51.118Z,3.00
2019-05-10T00:22:20.348Z,2.73
2019-05-10T00:25:02.043Z,3.07
2019-05-10T00:27:19.833Z,2.63
2019-05-10T00:29:49.076Z,3.60
2019-05-10T00:32:18.027Z,3.30
2019-05-10T00:34:46.830Z,2.50
2019-05-10T00:37:16.181Z,2.93
2019-05-10T00:39:45.072Z,3.20
2019-05-10T00:42:13.892Z,3.90
2019-05-10T00:44:42.769Z,3.97
2019-05-10T00:47:11.846Z,4.20
2019-05-10T00:49:40.725Z,3.23
2019-05-10T00:52:09.952Z,2.90
2019-05-10T00:54:39.091Z,2.80
2019-05-10T00:57:07.896Z,2.50
2019-05-10T00:59:36.693Z,3.30
2019-05-10T01:02:05.570Z,3.00
2019-05-10T01:04:34.368Z,3.50
2019-05-10T01:07:03.468Z,3.10
2019-05-10T01:09:32.579Z,3.17
2019-05-10T01:12:01.396Z,3.37
2019-05-10T01:14:30.192Z,4.40
2019-05-10T01:16:58.999Z,4.17
2019-05-10T01:19:27.990Z,3.60
2019-05-10T01:21:56.832Z,4.10
2019-05-10T01:24:25.721Z,5.27
2019-05-10T01:26:54.812Z,4.97
2019-05-10T01:29:23.616Z,4.30
2019-05-10T01:31:52.432Z,4.80
2019-05-10T01:34:21.224Z,4.93
2019-05-10T01:36:50.298Z,7.47
2019-05-10T01:39:19.679Z,5.90
2019-05-10T01:41:48.498Z,6.40
2019-05-10T01:44:17.289Z,7.90
2019-05-10T01:46:46.181Z,7.30
2019-05-10T01:49:15.372Z,7.83
2019-05-10T01:51:44.252Z,7.90
2019-05-10T01:54:13.035Z,7.73
2019-05-10T01:56:41.848Z,7.53
2019-05-10T01:59:10.626Z,7.30
2019-05-10T02:01:39.412Z,8.90
2019-05-10T02:04:09.249Z,8.60
2019-05-10T02:06:38.053Z,8.30
2019-05-10T02:09:08.131Z,8.07
2019-05-10T02:11:37.004Z,8.50
2019-05-10T02:14:05.895Z,9.30
2019-05-10T02:16:35.038Z,9.30
2019-05-10T02:19:03.878Z,10.13
2019-05-10T02:21:32.684Z,9.47
2019-05-10T02:24:01.484Z,10.10
2019-05-10T02:26:31.381Z,9.47
2019-05-10T02:29:00.165Z,10.50
2019-05-10T02:31:29.039Z,10.67
2019-05-10T02:33:58.174Z,10.57
2019-05-10T02:36:26.978Z,11.03
2019-05-10T02:38:55.833Z,11.50
2019-05-10T02:41:24.756Z,12.50
2019-05-10T02:43:53.616Z,13.63
2019-05-10T02:46:22.402Z,13.40
2019-05-10T02:48:51.194Z,14.10
2019-05-10T02:51:20.068Z,13.13
2019-05-10T02:53:49.110Z,13.40
2019-05-10T02:56:29.982Z,14.70
2019-05-10T02:58:49.908Z,15.20
2019-05-10T03:01:22.137Z,14.63
2019-05-10T03:03:53.435Z,16.13
2019-05-10T03:06:24.552Z,16.70
2019-05-10T03:08:54.565Z,15.80
2019-05-10T03:11:23.369Z,15.80
2019-05-10T03:13:53.080Z,17.00
2019-05-10T03:16:23.149Z,16.10
2019-05-10T03:18:53.050Z,15.70
2019-05-10T03:21:23.509Z,14.90
2019-05-10T03:23:52.521Z,13.83
2019-05-10T03:26:21.465Z,14.17
2019-05-10T03:28:50.510Z,14.03
2019-05-10T03:31:19.527Z,12.93
2019-05-10T03:33:55.538Z,13.70
2019-05-10T03:36:19.328Z,13.10
2019-05-10T03:38:48.470Z,13.47
2019-05-10T03:41:18.021Z,13.40
2019-05-10T03:43:46.824Z,13.20
2019-05-10T03:46:15.663Z,11.90
2019-05-10T03:48:44.473Z,12.03
2019-05-10T03:51:13.250Z,10.83
2019-05-10T03:53:42.079Z,11.57
2019-05-10T03:56:11.253Z,11.93
2019-05-10T03:58:40.047Z,11.20
2019-05-10T04:01:09.255Z,11.03
2019-05-10T04:03:38.052Z,12.07
2019-05-10T04:06:06.834Z,12.03
2019-05-10T04:08:35.693Z,11.50
2019-05-10T04:11:04.471Z,11.60
2019-05-10T04:13:33.354Z,11.53
2019-05-10T04:16:02.137Z,13.53
2019-05-10T04:18:31.020Z,12.37
2019-05-10T04:20:59.883Z,12.33
2019-05-10T04:23:28.681Z,13.13
2019-05-10T04:25:57.865Z,13.73
2019-05-10T04:28:26.650Z,12.37
2019-05-10T04:30:55.510Z,12.97
2019-05-10T04:33:24.616Z,11.50
2019-05-10T04:35:53.485Z,12.40
2019-05-10T04:38:22.333Z,11.00
2019-05-10T04:40:51.153Z,9.80
2019-05-10T04:43:20.013Z,11.10
2019-05-10T04:45:48.824Z,10.30
2019-05-10T04:48:17.630Z,9.30
2019-05-10T04:50:49.181Z,8.80
2019-05-10T04:53:17.324Z,8.20
2019-05-10T04:55:46.125Z,6.80
2019-05-10T04:58:14.938Z,7.00
2019-05-10T05:00:43.753Z,7.33
2019-05-10T05:03:12.641Z,6.90
2019-05-10T05:05:41.512Z,6.20
2019-05-10T05:08:10.312Z,6.13
2019-05-10T05:10:39.316Z,5.40
2019-05-10T05:13:08.088Z,6.30
2019-05-10T05:15:36.877Z,6.70
2019-05-10T05:18:05.653Z,6.60
2019-05-10T05:20:34.444Z,6.93
2019-05-10T05:23:03.307Z,6.73
2019-05-10T05:25:35.135Z,7.93
2019-05-10T05:28:07.982Z,7.67
2019-05-10T05:30:33.471Z,9.67
2019-05-10T05:33:02.669Z,9.40
2019-05-10T05:35:31.649Z,8.77
2019-05-10T05:38:00.424Z,8.43
2019-05-10T05:40:29.447Z,9.37
2019-05-10T05:43:02.745Z,9.80
2019-05-10T05:45:34.079Z,8.47
2019-05-10T05:47:59.233Z,9.10
2019-05-10T05:50:28.057Z,9.43
2019-05-10T05:52:56.976Z,8.57
2019-05-10T05:55:30.639Z,9.70
2019-05-10T05:57:59.205Z,9.43
2019-05-10T06:00:26.816Z,8.73
2019-05-10T06:02:55.649Z,10.83
2019-05-10T06:05:34.125Z,10.03
2019-05-10T06:07:55.094Z,9.80
2019-05-10T06:10:24.214Z,8.60
2019-05-10T06:12:53.139Z,7.30
2019-05-10T06:15:23.019Z,6.13
2019-05-10T06:17:57.138Z,8.00
2019-05-10T06:20:23.584Z,7.70
2019-05-10T06:23:05.766Z,8.33
2019-05-10T06:25:37.997Z,10.60
2019-05-10T06:27:54.074Z,9.70
2019-05-10T06:30:23.653Z,9.50
2019-05-10T06:32:59.920Z,10.27
2019-05-10T06:35:23.668Z,8.53
2019-05-10T06:37:52.819Z,8.00
2019-05-10T06:40:33.541Z,8.27
2019-05-10T06:42:52.329Z,7.60
2019-05-10T06:45:21.415Z,7.30
2019-05-10T06:47:53.325Z,6.80
2019-05-10T06:50:28.603Z,7.80
2019-05-10T06:52:52.327Z,7.30
2019-05-10T06:55:21.588Z,4.87
2019-05-10T06:57:58.848Z,5.30
2019-05-10T07:00:21.093Z,6.70
2019-05-10T07:02:49.913Z,5.67
2019-05-10T07:05:18.694Z,5.90
2019-05-10T07:07:47.468Z,4.50
2019-05-10T07:10:19.573Z,5.03
2019-05-10T07:12:47.039Z,4.33
2019-05-10T07:15:16.152Z,5.70
2019-05-10T07:17:47.130Z,5.20
2019-05-10T07:20:16.720Z,4.73
2019-05-10T07:22:45.511Z,4.03
2019-05-10T07:25:14.868Z,4.70
2019-05-10T07:27:44.249Z,5.13
2019-05-10T07:30:13.681Z,4.27
2019-05-10T07:32:42.457Z,4.10
2019-05-10T07:35:11.579Z,4.00
2019-05-10T07:37:40.359Z,4.00
2019-05-10T07:40:09.394Z,3.60
2019-05-10T07:42:39.855Z,3.87
2019-05-10T07:45:09.038Z,3.40
2019-05-10T07:47:37.827Z,4.23
2019-05-10T07:50:09.780Z,3.30
2019-05-10T07:52:43.393Z,3.77
2019-05-10T07:55:10.571Z,4.37
2019-05-10T07:57:39.078Z,3.40
2019-05-10T08:00:08.665Z,3.40
2019-05-10T08:02:37.455Z,2.73
2019-05-10T08:05:10.933Z,3.10
2019-05-10T08:07:38.724Z,3.13
2019-05-10T08:10:08.768Z,2.70
2019-05-10T08:12:41.422Z,2.60
2019-05-10T08:15:09.765Z,3.10
2019-05-10T08:17:43.293Z,2.67
2019-05-10T08:20:20.357Z,3.67
2019-05-10T08:22:44.498Z,2.70
2019-05-10T08:25:12.723Z,3.33
2019-05-10T08:27:50.247Z,3.07
2019-05-10T08:30:25.402Z,3.03
2019-05-10T08:32:44.007Z,3.63
2019-05-10T08:35:17.230Z,3.20
2019-05-10T08:37:43.511Z,3.80
2019-05-10T08:40:12.850Z,3.37
2019-05-10T08:42:48.207Z,3.37
2019-05-10T08:45:12.765Z,3.40
2019-05-10T08:47:44.711Z,3.53
2019-05-10T08:50:28.785Z,4.63
2019-05-10T08:52:44.404Z,4.17
2019-05-10T08:55:13.488Z,3.50
2019-05-10T08:57:49.096Z,3.43
2019-05-10T09:00:14.249Z,3.33
2019-05-10T09:02:43.185Z,4.33
2019-05-10T09:05:12.654Z,4.60
2019-05-10T09:07:44.986Z,4.00
2019-05-10T09:10:13.091Z,4.13
2019-05-10T09:12:50.827Z,4.10
2019-05-10T09:15:13.555Z,3.83
2019-05-10T09:17:43.206Z,4.00
2019-05-10T09:20:22.012Z,4.73
2019-05-10T09:22:43.433Z,3.97
2019-05-10T09:25:13.043Z,6.27
2019-05-10T09:27:43.160Z,4.30
2019-05-10T09:30:15.518Z,3.80
2019-05-10T09:32:43.811Z,3.90
2019-05-10T09:35:13.419Z,3.77
2019-05-10T09:37:42.292Z,3.53
2019-05-10T09:40:13.349Z,3.93
2019-05-10T09:42:43.487Z,4.70
2019-05-10T09:45:13.324Z,4.70
2019-05-10T09:47:43.399Z,4.40
2019-05-10T09:50:13.666Z,5.90
2019-05-10T09:52:42.513Z,5.43
2019-05-10T09:55:14.661Z,6.37
2019-05-10T09:57:42.395Z,6.43
2019-05-10T10:00:12.313Z,7.07
2019-05-10T10:02:47.864Z,8.40
2019-05-10T10:05:13.304Z,7.87
2019-05-10T10:07:42.106Z,7.70
2019-05-10T10:10:17.629Z,7.80
2019-05-10T10:12:43.137Z,8.20
2019-05-10T10:15:18.720Z,8.20
2019-05-10T10:17:42.977Z,7.97
2019-05-10T10:20:12.030Z,8.20
2019-05-10T10:22:43.485Z,8.00
2019-05-10T10:25:11.448Z,8.27
2019-05-10T10:27:40.234Z,6.53
2019-05-10T10:30:12.853Z,6.97
2019-05-10T10:32:44.280Z,6.03
2019-05-10T10:35:13.318Z,6.57
2019-05-10T10:37:42.482Z,7.37
2019-05-10T10:40:14.963Z,6.10
2019-05-10T10:42:42.150Z,7.50
2019-05-10T10:45:12.280Z,7.30
2019-05-10T10:47:41.061Z,6.63
2019-05-10T10:50:13.432Z,6.67
2019-05-10T10:52:40.909Z,6.97
2019-05-10T10:55:13.332Z,7.37
2019-05-10T10:57:40.865Z,8.43
2019-05-10T11:00:10.624Z,9.27
2019-05-10T11:02:41.630Z,10.47
2019-05-10T11:05:10.227Z,9.97
2019-05-10T11:07:44.278Z,8.57
2019-05-10T11:10:17.890Z,7.70
2019-05-10T11:12:41.388Z,6.70
2019-05-10T11:15:11.418Z,8.00
2019-05-10T11:17:40.925Z,8.50
2019-05-10T11:20:11.499Z,6.30
2019-05-10T11:22:42.013Z,7.20
2019-05-10T11:25:12.931Z,7.50
2019-05-10T11:27:42.237Z,6.50
2019-05-10T11:30:12.150Z,7.00
2019-05-10T11:32:41.999Z,6.43
2019-05-10T11:35:11.966Z,6.77
2019-05-10T11:37:45.372Z,5.43
2019-05-10T11:40:17.443Z,5.10
2019-05-10T11:42:47.306Z,5.27
2019-05-10T11:45:15.358Z,4.80
2019-05-10T11:47:48.095Z,4.73
2019-05-10T11:50:27.841Z,4.37
2019-05-10T11:52:45.986Z,4.37
2019-05-10T11:55:14.842Z,4.97
2019-05-10T11:57:44.366Z,5.00
2019-05-10T12:00:25.548Z,5.73
2019-05-10T12:03:03.193Z,6.53
2019-05-10T12:05:20.275Z,5.50
2019-05-10T12:07:47.761Z,5.53
2019-05-10T12:10:20.960Z,5.90
2019-05-10T12:13:01.709Z,7.07
2019-05-10T12:15:25.023Z,6.23
2019-05-10T12:17:57.786Z,6.13
2019-05-10T12:20:26.732Z,5.50
2019-05-10T12:22:51.748Z,6.20
2019-05-10T12:25:37.918Z,6.13
2019-05-10T12:27:52.301Z,5.20
2019-05-10T12:30:21.813Z,5.60
2019-05-10T12:32:56.175Z,5.70
2019-05-10T12:35:21.600Z,6.97
2019-05-10T12:37:53.972Z,8.10
2019-05-10T12:40:24.154Z,7.23
2019-05-10T12:42:51.555Z,7.30
2019-05-10T12:45:23.266Z,7.13
2019-05-10T12:47:51.986Z,6.40
2019-05-10T12:50:21.452Z,6.37
2019-05-10T12:53:02.632Z,6.37
2019-05-10T12:55:20.724Z,6.53
2019-05-10T12:57:49.509Z,5.87
2019-05-10T13:00:18.368Z,6.63
2019-05-10T13:02:51.085Z,5.43
2019-05-10T13:05:18.038Z,5.70
2019-05-10T13:07:46.804Z,5.33
2019-05-10T13:10:15.810Z,5.73
2019-05-10T13:12:47.238Z,5.40
2019-05-10T13:15:16.447Z,5.57
2019-05-10T13:17:50.450Z,5.10
2019-05-10T13:20:16.416Z,5.83
2019-05-10T13:22:45.198Z,5.13
2019-05-10T13:25:14.252Z,4.40
2019-05-10T13:27:43.039Z,4.17
2019-05-10T13:30:12.776Z,4.70
2019-05-10T13:32:41.549Z,5.10
2019-05-10T13:35:10.400Z,5.00
2019-05-10T13:37:39.165Z,4.03
2019-05-10T13:40:08.575Z,4.17
2019-05-10T13:42:43.148Z,4.10
2019-05-10T13:45:08.713Z,4.40
2019-05-10T13:47:37.621Z,3.80
2019-05-10T13:50:07.769Z,4.50
2019-05-10T13:52:40.850Z,4.03
2019-05-10T13:55:07.642Z,3.60
2019-05-10T13:57:36.422Z,4.33
2019-05-10T14:00:06.519Z,3.97
2019-05-10T14:02:35.304Z,3.50
2019-05-10T14:05:04.385Z,3.40
2019-05-10T14:07:33.165Z,3.40
2019-05-10T14:10:01.991Z,3.57
2019-05-10T14:12:30.861Z,3.70
2019-05-10T14:15:02.535Z,4.13
2019-05-10T14:17:30.580Z,4.80
2019-05-10T14:19:59.540Z,4.03
2019-05-10T14:22:28.700Z,4.30
2019-05-10T14:24:59.219Z,4.40
2019-05-10T14:27:30.021Z,3.97
2019-05-10T14:29:58.966Z,4.33
2019-05-10T14:32:27.848Z,4.60
2019-05-10T14:34:56.706Z,3.87
2019-05-10T14:37:25.506Z,4.43
2019-05-10T14:39:54.291Z,4.53
2019-05-10T14:42:31.296Z,3.80
2019-05-10T14:44:53.691Z,3.50
2019-05-10T14:47:22.517Z,3.10
2019-05-10T14:49:51.350Z,4.67
2019-05-10T14:52:22.527Z,3.97
2019-05-10T14:54:55.204Z,3.80
2019-05-10T14:57:21.494Z,3.90
2019-05-10T14:59:50.626Z,3.77
2019-05-10T15:02:22.797Z,3.63
2019-05-10T15:04:50.123Z,3.40
2019-05-10T15:07:19.612Z,4.83
2019-05-10T15:09:48.420Z,3.57
2019-05-10T15:12:22.646Z,3.83
2019-05-10T15:14:48.500Z,4.10
2019-05-10T15:17:19.882Z,4.20
2019-05-10T15:19:55.917Z,4.33
2019-05-10T15:22:22.994Z,3.67
2019-05-10T15:24:49.624Z,3.67
2019-05-10T15:27:21.880Z,3.73
2019-05-10T15:29:49.325Z,4.27
2019-05-10T15:32:18.461Z,4.27
2019-05-10T15:35:04.315Z,3.97
2019-05-10T15:37:18.445Z,4.80
2019-05-10T15:39:47.409Z,5.30
2019-05-10T15:42:16.215Z,4.80
2019-05-10T15:44:45.073Z,4.30
2019-05-10T15:47:19.913Z,4.90
2019-05-10T15:49:45.016Z,5.00
2019-05-10T15:52:17.734Z,5.73
2019-05-10T15:54:47.219Z,6.83
2019-05-10T15:57:20.158Z,5.90
2019-05-10T15:59:50.717Z,5.73
2019-05-10T16:02:16.614Z,5.50
2019-05-10T16:04:45.782Z,5.70
2019-05-10T16:07:16.575Z,6.10
2019-05-10T16:09:49.813Z,5.60
2019-05-10T16:12:17.630Z,6.03
2019-05-10T16:14:46.489Z,5.93
2019-05-10T16:17:17.557Z,6.67
2019-05-10T16:19:50.285Z,6.57
2019-05-10T16:22:16.686Z,6.17
2019-05-10T16:24:45.706Z,6.17
2019-05-10T16:27:14.960Z,6.17
2019-05-10T16:29:43.842Z,5.40
2019-05-10T16:32:13.161Z,5.67
2019-05-10T16:34:42.358Z,5.97
2019-05-10T16:37:11.146Z,6.30
2019-05-10T16:39:40.279Z,7.13
2019-05-10T16:42:09.130Z,7.17
2019-05-10T16:44:38.229Z,6.10
2019-05-10T16:47:07.135Z,5.40
2019-05-10T16:49:35.940Z,5.97
2019-05-10T16:52:04.830Z,5.40
2019-05-10T16:54:33.684Z,5.90
2019-05-10T16:57:02.452Z,6.00
2019-05-10T16:59:31.483Z,5.90
2019-05-10T17:02:04.478Z,5.30
2019-05-10T17:04:31.997Z,4.87
2019-05-10T17:07:01.489Z,4.83
2019-05-10T17:09:30.630Z,4.37
2019-05-10T17:11:59.442Z,4.50
2019-05-10T17:14:28.472Z,5.53
2019-05-10T17:16:59.750Z,5.67
2019-05-10T17:19:33.860Z,5.27
2019-05-10T17:21:58.440Z,6.20
2019-05-10T17:24:27.572Z,5.50
2019-05-10T17:26:56.351Z,5.70
2019-05-10T17:29:25.138Z,5.60
2019-05-10T17:31:53.930Z,5.40
2019-05-10T17:34:29.173Z,5.60
2019-05-10T17:36:58.102Z,6.87
2019-05-10T17:39:26.023Z,5.90
2019-05-10T17:41:57.722Z,7.10
2019-05-10T17:44:25.014Z,6.77
2019-05-10T17:46:55.278Z,7.07
2019-05-10T17:49:24.439Z,7.83
2019-05-10T17:51:53.300Z,7.50
2019-05-10T17:54:22.465Z,7.60
2019-05-10T17:56:51.596Z,7.53
2019-05-10T17:59:20.664Z,8.40
2019-05-10T18:01:49.440Z,7.80
2019-05-10T18:04:18.567Z,8.30
2019-05-10T18:06:47.361Z,7.13
2019-05-10T18:09:16.532Z,7.80
2019-05-10T18:11:45.648Z,7.80
2019-05-10T18:14:17.846Z,7.97
2019-05-10T18:16:48.218Z,7.87
2019-05-10T18:19:19.235Z,6.93
2019-05-10T18:21:46.004Z,7.43
2019-05-10T18:24:14.801Z,8.67
2019-05-10T18:26:44.019Z,8.40
2019-05-10T18:29:12.917Z,7.73
2019-05-10T18:31:41.689Z,8.67
2019-05-10T18:34:10.469Z,8.07
2019-05-10T18:36:54.409Z,9.13
2019-05-10T18:39:15.363Z,9.57
2019-05-10T18:41:41.399Z,7.67
2019-05-10T18:44:14.177Z,7.67
2019-05-10T18:46:41.572Z,9.83
2019-05-10T18:49:10.360Z,10.67
2019-05-10T18:51:39.160Z,10.00
2019-05-10T18:54:07.963Z,10.53
2019-05-10T18:56:37.044Z,10.87
2019-05-10T18:59:07.587Z,12.60
2019-05-10T19:01:38.855Z,12.40
2019-05-10T19:04:13.182Z,11.50
2019-05-10T19:06:38.277Z,10.90
2019-05-10T19:09:07.391Z,12.07
2019-05-10T19:11:39.046Z,11.97
2019-05-10T19:14:07.006Z,11.87
2019-05-10T19:16:35.909Z,11.30
2019-05-10T19:19:04.970Z,10.83
2019-05-10T19:21:37.580Z,11.27
2019-05-10T19:24:04.614Z,10.00
2019-05-10T19:26:33.498Z,9.87
2019-05-10T19:29:05.344Z,9.40
2019-05-10T19:31:38.265Z,10.33
2019-05-10T19:34:08.910Z,9.70
2019-05-10T19:36:34.216Z,9.27
2019-05-10T19:39:03.080Z,10.00
2019-05-10T19:41:31.886Z,9.43
2019-05-10T19:44:02.465Z,9.40
2019-05-10T19:46:39.239Z,9.90
2019-05-10T19:49:02.007Z,11.30
2019-05-10T19:51:31.211Z,12.13
2019-05-10T19:54:00.005Z,13.37
2019-05-10T19:56:30.191Z,13.60
2019-05-10T19:59:05.231Z,13.50
2019-05-10T20:01:30.260Z,12.73
2019-05-10T20:03:59.180Z,12.70
2019-05-10T20:06:28.169Z,11.93
2019-05-10T20:08:57.032Z,12.20
2019-05-10T20:11:25.880Z,13.60
2019-05-10T20:13:54.711Z,12.80
2019-05-10T20:16:23.509Z,12.87
2019-05-10T20:18:52.297Z,11.30
2019-05-10T20:21:21.397Z,10.60
2019-05-10T20:23:50.192Z,10.20
2019-05-10T20:26:18.984Z,11.97
2019-05-10T20:28:47.789Z,11.07
2019-05-10T20:31:16.674Z,12.27
2019-05-10T20:33:45.463Z,13.60
2019-05-10T20:36:14.261Z,11.93
2019-05-10T20:38:43.039Z,11.03
2019-05-10T20:41:12.150Z,13.30
2019-05-10T20:43:41.280Z,13.93
2019-05-10T20:46:11.563Z,11.80
2019-05-10T20:48:40.586Z,10.43
2019-05-10T20:51:09.486Z,11.20
2019-05-10T20:53:38.255Z,14.37
2019-05-10T20:56:07.140Z,15.83
2019-05-10T20:58:36.215Z,15.17
2019-05-10T21:01:05.239Z,16.03
2019-05-10T21:03:34.065Z,14.10
2019-05-10T21:06:02.906Z,14.80
2019-05-10T21:08:31.684Z,13.83
2019-05-10T21:11:00.514Z,13.60
2019-05-10T21:13:29.866Z,13.13
2019-05-10T21:15:58.711Z,14.60
2019-05-10T21:18:27.500Z,11.90
2019-05-10T21:20:56.553Z,11.87
2019-05-10T21:23:25.667Z,12.83
2019-05-10T21:25:54.857Z,15.03
2019-05-10T21:28:23.747Z,14.83
2019-05-10T21:30:53.548Z,13.40
2019-05-10T21:33:22.621Z,15.13
2019-05-10T21:35:51.416Z,13.20
2019-05-10T21:38:32.657Z,13.77
2019-05-10T21:40:51.097Z,13.40
2019-05-10T21:43:20.192Z,14.70
2019-05-10T21:45:48.971Z,14.57
2019-05-10T21:48:17.759Z,11.83
2019-05-10T21:50:46.543Z,13.20
2019-05-10T21:53:15.620Z,13.53
2019-05-10T21:55:44.416Z,13.10
2019-05-10T21:58:13.216Z,13.90
2019-05-10T22:00:46.099Z,14.40
2019-05-10T22:03:15.145Z,11.77
2019-05-10T22:05:44.276Z,11.00
2019-05-10T22:08:13.142Z,10.80
2019-05-10T22:10:42.025Z,10.87
2019-05-10T22:13:11.208Z,10.33
2019-05-10T22:15:40.019Z,12.17
2019-05-10T22:18:08.890Z,10.90
2019-05-10T22:20:37.677Z,11.90
2019-05-10T22:23:06.472Z,11.13
2019-05-10T22:25:35.257Z,12.20
2019-05-10T22:28:04.070Z,14.30
2019-05-10T22:30:32.852Z,14.47
2019-05-10T22:33:02.020Z,13.20
2019-05-10T22:35:30.812Z,13.77
2019-05-10T22:38:00.007Z,12.53
2019-05-10T22:40:28.780Z,12.20
2019-05-10T22:42:57.656Z,11.50
2019-05-10T22:45:26.751Z,11.90
2019-05-10T22:47:55.549Z,11.63
2019-05-10T22:50:24.414Z,13.33
2019-05-10T22:52:53.244Z,11.63
2019-05-10T22:55:22.037Z,11.20
2019-05-10T22:57:51.379Z,10.07
2019-05-10T23:00:20.750Z,11.37
2019-05-10T23:02:49.532Z,11.10
2019-05-10T23:05:18.333Z,12.20
2019-05-10T23:07:47.389Z,12.67
2019-05-10T23:10:16.503Z,12.60
2019-05-10T23:12:45.892Z,11.83
2019-05-10T23:15:15.770Z,10.43
2019-05-10T23:17:44.572Z,9.90
2019-05-10T23:20:14.009Z,11.27
2019-05-10T23:22:42.809Z,10.80
2019-05-10T23:25:11.724Z,10.70
2019-05-10T23:27:40.958Z,11.77
2019-05-10T23:30:10.269Z,12.07
2019-05-10T23:32:39.144Z,10.83
2019-05-10T23:35:08.222Z,11.10
2019-05-10T23:37:37.101Z,11.00
2019-05-10T23:40:06.205Z,11.30
2019-05-10T23:42:35.015Z,12.40
2019-05-10T23:45:04.323Z,11.50
2019-05-10T23:47:33.221Z,13.50
2019-05-10T23:50:02.177Z,13.73
2019-05-10T23:52:55.149Z,14.27
2019-05-10T23:55:23.933Z,12.20
2019-05-10T23:57:52.728Z,13.90
